createdAt,value
2022-11-02T00:01:42.913Z,1.90
2022-11-02T00:04:12.371Z,1.70
2022-11-02T00:06:42.809Z,1.33
2022-11-02T00:09:10.982Z,1.60
2022-11-02T00:11:39.415Z,1.50
2022-11-02T00:14:07.990Z,1.53
2022-11-02T00:16:41.278Z,2.27
2022-11-02T00:19:10.801Z,1.97
2022-11-02T00:21:40.173Z,2.10
2022-11-02T00:24:12.579Z,1.63
2022-11-02T00:26:41.411Z,1.73
2022-11-02T00:29:10.757Z,1.50
2022-11-02T00:31:39.354Z,1.73
2022-11-02T00:34:08.017Z,1.67
2022-11-02T00:36:36.166Z,1.33
2022-11-02T00:39:04.447Z,1.37
2022-11-02T00:41:34.036Z,1.40
2022-11-02T00:44:02.628Z,1.60
2022-11-02T00:46:31.070Z,1.77
2022-11-02T00:48:59.410Z,2.00
2022-11-02T00:51:29.399Z,1.57
2022-11-02T00:53:57.959Z,1.40
2022-11-02T00:56:26.255Z,1.77
2022-11-02T00:58:56.549Z,1.60
2022-11-02T01:01:25.011Z,1.60
2022-11-02T01:03:53.847Z,1.73
2022-11-02T01:06:22.028Z,1.70
2022-11-02T01:08:51.187Z,1.30
2022-11-02T01:11:22.615Z,2.03
2022-11-02T01:13:54.663Z,1.50
2022-11-02T01:16:24.352Z,2.10
2022-11-02T01:18:54.742Z,2.43
2022-11-02T01:21:24.009Z,1.70
2022-11-02T01:23:53.509Z,1.70
2022-11-02T01:26:22.291Z,1.70
2022-11-02T01:28:50.552Z,2.00
2022-11-02T01:31:20.006Z,1.90
2022-11-02T01:33:49.712Z,1.70
2022-11-02T01:38:55.134Z,2.03
2022-11-02T01:41:23.944Z,2.30
2022-11-02T01:43:59.075Z,1.30
2022-11-02T01:46:37.602Z,1.73
2022-11-02T01:49:15.009Z,1.90
2022-11-02T01:51:51.649Z,1.60
2022-11-02T01:54:26.497Z,1.60
2022-11-02T01:57:06.838Z,2.10
2022-11-02T01:59:45.102Z,2.10
2022-11-02T02:02:21.549Z,1.90
2022-11-02T02:04:59.219Z,1.80
2022-11-02T02:07:32.315Z,1.93
2022-11-02T02:10:02.175Z,2.13
2022-11-02T02:12:33.334Z,1.77
2022-11-02T02:15:02.524Z,1.70
2022-11-02T02:17:45.151Z,2.27
2022-11-02T02:20:41.194Z,1.77
2022-11-02T02:24:11.023Z,1.87
2022-11-02T02:27:11.582Z,1.80
2022-11-02T02:29:56.638Z,2.17
2022-11-02T02:32:37.011Z,1.47
2022-11-02T02:35:20.312Z,1.67
2022-11-02T02:37:57.792Z,1.90
2022-11-02T02:40:35.096Z,2.43
2022-11-02T02:43:11.696Z,2.27
2022-11-02T02:45:47.453Z,1.70
2022-11-02T02:48:21.129Z,2.10
2022-11-02T02:50:52.123Z,2.13
2022-11-02T02:53:30.545Z,1.70
2022-11-02T02:56:02.898Z,1.70
2022-11-02T02:58:45.072Z,1.80
2022-11-02T03:01:18.538Z,2.33
2022-11-02T03:03:48.415Z,2.20
2022-11-02T03:06:23.211Z,2.37
2022-11-02T03:09:07.198Z,2.17
2022-11-02T03:11:51.601Z,1.60
2022-11-02T03:14:38.368Z,2.40
2022-11-02T03:17:17.766Z,2.50
2022-11-02T03:20:03.051Z,2.50
2022-11-02T03:22:36.004Z,1.90
2022-11-02T03:25:17.376Z,2.10
2022-11-02T03:27:56.138Z,2.50
2022-11-02T03:30:31.096Z,2.20
2022-11-02T03:33:11.181Z,1.90
2022-11-02T03:35:49.012Z,2.27
2022-11-02T03:38:26.144Z,1.47
2022-11-02T03:40:58.942Z,2.60
2022-11-02T03:43:30.057Z,2.33
2022-11-02T03:46:04.525Z,1.80
2022-11-02T03:48:41.474Z,1.60
2022-11-02T03:51:17.218Z,1.87
2022-11-02T03:53:53.955Z,1.70
2022-11-02T03:56:30.649Z,1.30
2022-11-02T03:58:59.803Z,2.40
2022-11-02T04:01:30.838Z,1.93
2022-11-02T04:04:00.817Z,2.00
2022-11-02T04:06:29.643Z,1.93
2022-11-02T04:08:57.964Z,1.70
2022-11-02T04:11:44.256Z,1.63
2022-11-02T04:14:32.846Z,2.00
2022-11-02T04:17:21.271Z,1.67
2022-11-02T04:19:54.819Z,1.63
2022-11-02T04:22:42.133Z,1.73
2022-11-02T04:25:18.890Z,2.50
2022-11-02T04:27:58.059Z,2.00
2022-11-02T04:30:31.881Z,2.10
2022-11-02T04:33:19.415Z,2.43
2022-11-02T04:35:55.548Z,1.80
2022-11-02T04:38:43.154Z,2.50
2022-11-02T04:41:41.858Z,2.27
2022-11-02T04:44:30.605Z,2.50
2022-11-02T04:47:06.648Z,1.70
2022-11-02T04:49:37.097Z,2.40
2022-11-02T04:52:10.260Z,1.87
2022-11-02T04:54:43.950Z,2.50
2022-11-02T04:57:12.997Z,2.10
2022-11-02T04:59:41.518Z,1.60
2022-11-02T05:02:10.487Z,2.70
2022-11-02T05:04:39.591Z,1.83
2022-11-02T05:07:10.009Z,1.60
2022-11-02T05:09:38.689Z,1.30
2022-11-02T05:12:07.736Z,1.53
2022-11-02T05:14:37.767Z,1.80
2022-11-02T05:17:06.097Z,1.77
2022-11-02T05:19:36.996Z,1.43
2022-11-02T05:22:06.685Z,1.63
2022-11-02T05:24:37.692Z,3.13
2022-11-02T05:27:07.372Z,1.60
2022-11-02T05:29:37.646Z,2.07
2022-11-02T05:32:06.716Z,1.80
2022-11-02T05:34:35.573Z,1.60
2022-11-02T05:37:04.725Z,2.10
2022-11-02T05:39:33.575Z,1.50
2022-11-02T05:42:03.098Z,1.57
2022-11-02T05:44:32.169Z,1.40
2022-11-02T05:47:01.507Z,1.93
2022-11-02T05:49:30.863Z,1.80
2022-11-02T05:51:59.237Z,1.60
2022-11-02T05:54:28.343Z,1.97
2022-11-02T05:56:58.224Z,2.23
2022-11-02T05:59:28.168Z,2.20
2022-11-02T06:01:56.414Z,1.70
2022-11-02T06:04:25.527Z,1.97
2022-11-02T06:06:54.337Z,2.10
2022-11-02T06:09:22.749Z,2.00
2022-11-02T06:11:51.136Z,1.70
2022-11-02T06:14:20.211Z,1.90
2022-11-02T06:16:50.307Z,2.10
2022-11-02T06:19:18.731Z,1.70
2022-11-02T06:21:48.537Z,2.30
2022-11-02T06:24:17.480Z,2.47
2022-11-02T06:26:47.362Z,1.67
2022-11-02T06:29:15.660Z,1.67
2022-11-02T06:31:44.532Z,1.80
2022-11-02T06:34:14.408Z,2.00
2022-11-02T06:36:43.430Z,1.83
2022-11-02T06:39:12.057Z,1.93
2022-11-02T06:41:40.897Z,2.03
2022-11-02T06:44:09.178Z,1.67
2022-11-02T06:46:37.717Z,2.13
2022-11-02T06:49:06.449Z,1.90
2022-11-02T06:51:36.160Z,1.80
2022-11-02T06:54:08.698Z,1.90
2022-11-02T06:56:37.224Z,1.70
2022-11-02T06:59:06.153Z,1.80
2022-11-02T07:01:35.248Z,1.90
2022-11-02T07:04:04.045Z,1.90
2022-11-02T07:06:32.295Z,1.90
2022-11-02T07:09:04.358Z,1.67
2022-11-02T07:11:33.186Z,1.57
2022-11-02T07:14:01.764Z,1.60
2022-11-02T07:16:29.963Z,1.77
2022-11-02T07:18:58.130Z,1.07
2022-11-02T07:21:27.321Z,2.03
2022-11-02T07:23:55.497Z,1.20
2022-11-02T07:26:26.484Z,1.50
2022-11-02T07:28:59.246Z,2.37
2022-11-02T07:31:27.866Z,2.40
2022-11-02T07:33:56.995Z,1.67
2022-11-02T07:36:25.394Z,2.23
2022-11-02T07:38:53.698Z,1.93
2022-11-02T07:41:22.246Z,1.53
2022-11-02T07:43:51.842Z,1.70
2022-11-02T07:46:45.862Z,2.03
2022-11-02T07:49:20.201Z,2.30
2022-11-02T07:51:50.569Z,2.00
2022-11-02T07:54:21.238Z,1.50
2022-11-02T07:56:49.893Z,1.60
2022-11-02T07:59:19.817Z,1.77
2022-11-02T08:01:49.128Z,1.37
2022-11-02T08:04:18.301Z,1.80
2022-11-02T08:06:46.715Z,1.87
2022-11-02T08:09:16.133Z,1.70
2022-11-02T08:11:44.294Z,1.53
2022-11-02T08:14:13.494Z,2.03
2022-11-02T08:16:43.278Z,2.13
2022-11-02T08:19:12.988Z,1.70
2022-11-02T08:21:41.468Z,2.03
2022-11-02T08:24:09.756Z,1.70
2022-11-02T08:26:41.041Z,1.80
2022-11-02T08:29:12.424Z,1.70
2022-11-02T08:31:42.468Z,1.40
2022-11-02T08:34:11.959Z,1.70
2022-11-02T08:36:40.835Z,2.07
2022-11-02T08:39:09.021Z,2.30
2022-11-02T08:41:39.086Z,2.30
2022-11-02T08:44:07.506Z,2.00
2022-11-02T08:46:35.773Z,1.50
2022-11-02T08:49:05.693Z,2.07
2022-11-02T08:51:33.780Z,1.87
2022-11-02T08:54:01.904Z,1.77
2022-11-02T08:56:29.975Z,2.10
2022-11-02T08:58:59.180Z,2.33
2022-11-02T09:01:28.331Z,1.90
2022-11-02T09:03:56.631Z,2.17
2022-11-02T09:06:26.961Z,1.97
2022-11-02T09:08:57.931Z,1.73
2022-11-02T09:11:27.642Z,1.70
2022-11-02T09:13:57.202Z,2.03
2022-11-02T09:16:25.318Z,1.40
2022-11-02T09:18:54.498Z,1.97
2022-11-02T09:21:25.097Z,2.70
2022-11-02T09:23:55.333Z,2.23
2022-11-02T09:26:23.518Z,2.07
2022-11-02T09:28:52.466Z,2.13
2022-11-02T09:31:20.655Z,2.27
2022-11-02T09:33:49.789Z,2.00
2022-11-02T09:36:18.369Z,4.13
2022-11-02T09:38:46.477Z,3.77
2022-11-02T09:41:28.233Z,2.53
2022-11-02T09:44:07.624Z,2.00
2022-11-02T09:46:41.249Z,2.10
2022-11-02T09:49:17.967Z,2.63
2022-11-02T09:51:51.228Z,1.83
2022-11-02T09:54:26.966Z,1.83
2022-11-02T09:57:02.986Z,1.90
2022-11-02T09:59:31.690Z,2.00
2022-11-02T10:02:12.846Z,2.53
2022-11-02T10:05:19.287Z,1.87
2022-11-02T10:08:23.907Z,2.00
2022-11-02T10:11:08.264Z,2.00
2022-11-02T10:13:51.229Z,1.93
2022-11-02T10:16:31.229Z,2.03
2022-11-02T10:18:59.879Z,1.90
2022-11-02T10:21:34.109Z,1.87
2022-11-02T10:24:24.483Z,2.17
2022-11-02T10:27:00.742Z,2.10
2022-11-02T10:29:48.276Z,1.80
2022-11-02T10:32:18.276Z,2.30
2022-11-02T10:34:58.667Z,1.80
2022-11-02T10:37:55.988Z,3.20
2022-11-02T10:41:05.384Z,2.27
2022-11-02T10:43:58.935Z,2.30
2022-11-02T10:46:46.598Z,3.10
2022-11-02T10:49:42.023Z,2.43
2022-11-02T10:52:17.295Z,3.17
2022-11-02T10:54:45.768Z,3.17
2022-11-02T10:57:20.163Z,2.07
2022-11-02T11:00:29.187Z,1.93
2022-11-02T11:03:11.254Z,1.70
2022-11-02T11:05:59.623Z,2.00
2022-11-02T11:08:39.067Z,2.30
2022-11-02T11:11:21.429Z,2.20
2022-11-02T11:16:54.305Z,2.20
2022-11-02T11:22:30.559Z,2.53
2022-11-02T11:25:27.525Z,2.13
2022-11-02T11:28:00.165Z,5.27
2022-11-02T11:30:58.854Z,1.80
2022-11-02T11:33:23.402Z,2.13
2022-11-02T11:35:52.672Z,1.93
2022-11-02T11:38:26.612Z,2.17
2022-11-02T11:40:59.674Z,2.40
2022-11-02T11:43:38.681Z,2.35
2022-11-02T11:46:10.763Z,2.45
2022-11-02T11:48:46.738Z,2.17
2022-11-02T11:51:39.649Z,2.23
2022-11-02T11:54:22.689Z,2.03
2022-11-02T11:56:53.822Z,2.42
2022-11-02T11:59:30.349Z,2.20
2022-11-02T12:02:02.463Z,2.37
2022-11-02T12:04:36.126Z,2.30
2022-11-02T12:07:52.026Z,3.00
2022-11-02T12:10:39.310Z,2.53
2022-11-02T12:13:28.398Z,2.45
2022-11-02T12:16:13.588Z,2.70
2022-11-02T12:19:08.959Z,4.45
2022-11-02T12:21:54.624Z,3.65
2022-11-02T12:25:00.693Z,2.50
2022-11-02T12:27:41.589Z,2.25
2022-11-02T12:30:18.796Z,2.80
2022-11-02T12:33:10.497Z,2.53
2022-11-02T12:36:16.538Z,2.25
2022-11-02T12:39:08.355Z,2.67
2022-11-02T12:42:02.488Z,2.60
2022-11-02T12:44:53.271Z,2.85
2022-11-02T12:47:39.141Z,2.67
2022-11-02T12:50:23.056Z,2.38
2022-11-02T12:53:08.241Z,2.70
2022-11-02T12:55:46.103Z,2.70
2022-11-02T12:58:23.536Z,2.20
2022-11-02T13:01:00.220Z,2.45
2022-11-02T13:03:41.223Z,2.40
2022-11-02T13:06:18.225Z,2.50
2022-11-02T13:08:54.672Z,2.65
2022-11-02T13:11:32.096Z,2.60
2022-11-02T13:14:04.060Z,2.13
2022-11-02T13:16:44.927Z,1.90
2022-11-02T13:19:21.304Z,2.60
2022-11-02T13:21:57.076Z,2.60
2022-11-02T13:24:32.416Z,2.70
2022-11-02T13:27:21.669Z,2.35
2022-11-02T13:30:01.575Z,2.35
2022-11-02T13:32:37.996Z,2.47
2022-11-02T13:35:18.441Z,2.72
2022-11-02T13:37:54.612Z,2.65
2022-11-02T13:40:29.640Z,2.00
2022-11-02T13:43:43.455Z,2.30
2022-11-02T13:46:27.963Z,2.58
2022-11-02T13:49:04.824Z,1.80
2022-11-02T13:51:39.405Z,2.42
2022-11-02T13:54:16.362Z,2.30
2022-11-02T13:56:46.871Z,2.25
2022-11-02T13:59:24.990Z,2.20
2022-11-02T14:01:57.722Z,2.00
2022-11-02T14:04:28.032Z,2.00
2022-11-02T14:07:00.530Z,3.20
2022-11-02T14:09:36.592Z,4.20
2022-11-02T14:12:45.491Z,2.50
2022-11-02T14:15:43.790Z,2.15
2022-11-02T14:18:33.799Z,2.33
2022-11-02T14:21:44.072Z,2.25
2022-11-02T14:25:06.132Z,2.63
2022-11-02T14:27:35.410Z,2.28
2022-11-02T14:30:03.828Z,2.33
2022-11-02T14:33:08.513Z,2.63
2022-11-02T14:35:48.112Z,1.85
2022-11-02T14:38:48.483Z,2.60
2022-11-02T14:41:50.243Z,4.30
2022-11-02T14:45:09.483Z,3.75
2022-11-02T14:47:40.307Z,2.97
2022-11-02T14:50:18.623Z,2.90
2022-11-02T14:52:57.984Z,2.28
2022-11-02T14:55:30.788Z,4.45
2022-11-02T14:58:09.537Z,3.40
2022-11-02T15:00:58.284Z,2.15
2022-11-02T15:03:38.929Z,2.10
2022-11-02T15:06:19.364Z,2.45
2022-11-02T15:08:56.832Z,2.10
2022-11-02T15:11:45.624Z,2.30
2022-11-02T15:14:53.849Z,2.30
2022-11-02T15:17:59.373Z,2.27
2022-11-02T15:20:31.952Z,6.05
2022-11-02T15:23:29.924Z,3.07
2022-11-02T15:26:01.592Z,3.45
2022-11-02T15:28:35.164Z,3.33
2022-11-02T15:31:08.352Z,3.40
2022-11-02T15:33:43.488Z,4.20
2022-11-02T15:36:20.319Z,4.03
2022-11-02T15:38:53.547Z,2.50
2022-11-02T15:41:34.668Z,5.10
2022-11-02T15:44:38.294Z,10.50
2022-11-02T15:47:20.710Z,8.90
2022-11-02T15:50:17.610Z,8.83
2022-11-02T15:53:27.057Z,6.47
2022-11-02T15:56:16.749Z,8.33
2022-11-02T15:59:20.496Z,14.07
2022-11-02T16:02:13.772Z,24.20
2022-11-02T16:04:47.751Z,27.27
2022-11-02T16:07:19.413Z,18.10
2022-11-02T16:09:48.397Z,16.33
2022-11-02T16:12:20.941Z,16.97
2022-11-02T16:14:57.864Z,13.47
2022-11-02T16:17:30.026Z,11.20
2022-11-02T16:20:16.846Z,13.90
2022-11-02T16:22:50.328Z,14.73
2022-11-02T16:25:36.768Z,20.40
2022-11-02T16:28:21.405Z,17.33
2022-11-02T16:31:13.516Z,13.13
2022-11-02T16:33:47.834Z,8.83
2022-11-02T16:36:21.440Z,8.43
2022-11-02T16:38:59.865Z,6.57
2022-11-02T16:41:30.626Z,4.63
2022-11-02T16:44:09.351Z,4.50
2022-11-02T16:46:48.295Z,4.60
2022-11-02T16:49:20.428Z,3.60
2022-11-02T16:51:54.737Z,3.30
2022-11-02T16:54:41.574Z,3.87
2022-11-02T16:57:19.656Z,4.43
2022-11-02T16:59:55.174Z,3.53
2022-11-02T17:02:35.763Z,5.10
2022-11-02T17:05:07.292Z,5.50
2022-11-02T17:07:41.758Z,4.50
2022-11-02T17:10:21.625Z,3.37
2022-11-02T17:12:51.600Z,4.87
2022-11-02T17:15:25.484Z,3.87
2022-11-02T17:18:24.728Z,4.23
2022-11-02T17:21:24.679Z,5.00
2022-11-02T17:23:53.884Z,4.87
2022-11-02T17:26:33.720Z,4.33
2022-11-02T17:29:03.902Z,5.53
2022-11-02T17:31:37.056Z,4.97
2022-11-02T17:34:11.930Z,3.47
2022-11-02T17:36:44.051Z,3.23
2022-11-02T17:39:16.075Z,2.50
2022-11-02T17:42:03.368Z,3.77
2022-11-02T17:44:31.657Z,5.40
2022-11-02T17:47:01.669Z,4.83
2022-11-02T17:49:30.575Z,3.63
2022-11-02T17:51:58.856Z,3.97
2022-11-02T17:54:27.991Z,2.93
2022-11-02T17:56:56.224Z,3.43
2022-11-02T17:59:25.207Z,3.87
2022-11-02T18:01:53.821Z,3.97
2022-11-02T18:04:23.427Z,5.30
2022-11-02T18:06:52.465Z,6.67
2022-11-02T18:09:24.183Z,8.83
2022-11-02T18:11:52.366Z,4.90
2022-11-02T18:14:21.216Z,4.60
2022-11-02T18:16:50.594Z,5.37
2022-11-02T18:19:19.860Z,3.97
2022-11-02T18:21:49.438Z,5.10
2022-11-02T18:24:18.576Z,4.63
2022-11-02T18:26:47.173Z,5.30
2022-11-02T18:29:16.159Z,5.30
2022-11-02T18:31:44.988Z,5.27
2022-11-02T18:34:13.388Z,4.27
2022-11-02T18:36:43.370Z,14.57
2022-11-02T18:39:13.256Z,8.70
2022-11-02T18:41:43.036Z,11.50
2022-11-02T18:44:15.246Z,8.13
2022-11-02T18:46:47.842Z,5.63
2022-11-02T18:49:16.406Z,10.33
2022-11-02T18:51:46.232Z,7.10
2022-11-02T18:54:16.868Z,5.50
2022-11-02T18:56:46.067Z,5.13
2022-11-02T18:59:14.697Z,9.07
2022-11-02T19:01:43.299Z,14.07
2022-11-02T19:04:17.155Z,19.83
2022-11-02T19:07:03.449Z,18.20
2022-11-02T19:09:33.819Z,14.97
2022-11-02T19:12:10.151Z,11.20
2022-11-02T19:14:41.868Z,5.80
2022-11-02T19:17:13.197Z,3.47
2022-11-02T19:19:43.167Z,7.70
2022-11-02T19:22:14.682Z,7.83
2022-11-02T19:24:45.080Z,7.90
2022-11-02T19:27:17.088Z,11.37
2022-11-02T19:29:45.987Z,33.93
2022-11-02T19:32:15.273Z,50.40
2022-11-02T19:34:44.225Z,33.13
2022-11-02T19:37:13.369Z,30.23
2022-11-02T19:39:43.413Z,28.10
2022-11-02T19:42:11.571Z,23.13
2022-11-02T19:44:42.665Z,22.00
2022-11-02T19:47:11.956Z,19.60
2022-11-02T19:49:40.172Z,18.73
2022-11-02T19:52:08.312Z,20.33
2022-11-02T19:54:36.912Z,18.03
2022-11-02T19:57:06.634Z,16.87
2022-11-02T19:59:34.996Z,10.73
2022-11-02T20:02:03.217Z,10.90
2022-11-02T20:04:36.814Z,12.33
2022-11-02T20:07:09.608Z,12.30
2022-11-02T20:09:39.968Z,11.90
2022-11-02T20:12:09.710Z,12.53
2022-11-02T20:14:38.345Z,11.53
2022-11-02T20:17:41.939Z,11.23
2022-11-02T20:19:55.237Z,8.50
2022-11-02T20:22:23.398Z,8.90
2022-11-02T20:24:51.490Z,7.33
2022-11-02T20:27:21.501Z,6.50
2022-11-02T20:29:49.761Z,5.93
2022-11-02T20:32:20.337Z,6.40
2022-11-02T20:34:48.573Z,6.97
2022-11-02T20:37:16.775Z,7.33
2022-11-02T20:39:45.321Z,6.63
2022-11-02T20:42:13.498Z,5.87
2022-11-02T20:44:49.040Z,7.20
2022-11-02T20:47:17.246Z,6.93
2022-11-02T20:49:50.367Z,6.80
2022-11-02T20:52:21.922Z,6.73
2022-11-02T20:54:51.075Z,8.57
2022-11-02T20:57:19.292Z,6.60
2022-11-02T20:59:49.454Z,6.27
2022-11-02T21:02:18.404Z,6.90
2022-11-02T21:04:46.924Z,5.10
2022-11-02T21:07:15.091Z,6.03
2022-11-02T21:09:44.058Z,6.80
2022-11-02T21:12:33.244Z,6.47
2022-11-02T21:15:03.418Z,7.47
2022-11-02T21:17:31.616Z,7.13
2022-11-02T21:20:14.252Z,7.00
2022-11-02T21:22:50.796Z,7.80
2022-11-02T21:25:20.047Z,7.13
2022-11-02T21:27:51.357Z,8.00
2022-11-02T21:30:21.492Z,7.53
2022-11-02T21:32:52.264Z,7.80
2022-11-02T21:35:20.970Z,7.40
2022-11-02T21:37:49.180Z,7.63
2022-11-02T21:40:18.821Z,7.67
2022-11-02T21:42:47.081Z,6.40
2022-11-02T21:45:18.164Z,7.30
2022-11-02T21:47:51.333Z,6.60
2022-11-02T21:50:20.142Z,8.27
2022-11-02T21:52:48.276Z,6.73
2022-11-02T21:55:17.171Z,6.03
2022-11-02T21:57:45.592Z,5.80
2022-11-02T22:00:15.806Z,5.27
2022-11-02T22:02:43.082Z,6.23
2022-11-02T22:05:34.155Z,5.10
2022-11-02T22:08:19.853Z,6.30
2022-11-02T22:10:48.415Z,5.27
2022-11-02T22:13:34.942Z,5.53
2022-11-02T22:16:15.851Z,6.80
2022-11-02T22:18:45.257Z,5.00
2022-11-02T22:21:16.900Z,4.93
2022-11-02T22:23:46.699Z,7.07
2022-11-02T22:26:18.713Z,5.43
2022-11-02T22:28:48.354Z,7.00
2022-11-02T22:31:20.313Z,7.10
2022-11-02T22:33:51.935Z,7.97
2022-11-02T22:36:24.948Z,5.67
2022-11-02T22:38:54.108Z,5.63
2022-11-02T22:41:26.368Z,4.73
2022-11-02T22:43:57.924Z,4.43
2022-11-02T22:46:29.346Z,6.30
2022-11-02T22:49:00.676Z,6.10
2022-11-02T22:51:32.846Z,4.93
2022-11-02T22:54:02.662Z,7.17
2022-11-02T22:56:32.922Z,7.53
2022-11-02T22:59:02.623Z,6.70
2022-11-02T23:01:32.488Z,6.47
2022-11-02T23:04:01.562Z,7.53
2022-11-02T23:06:31.393Z,7.30
2022-11-02T23:09:00.769Z,6.73
2022-11-02T23:11:32.429Z,6.73
2022-11-02T23:14:04.675Z,5.33
2022-11-02T23:16:36.279Z,5.07
2022-11-02T23:19:27.775Z,4.90
2022-11-02T23:22:18.549Z,3.60
2022-11-02T23:25:07.558Z,4.30
2022-11-02T23:27:59.710Z,4.40
2022-11-02T23:30:48.043Z,3.60
2022-11-02T23:33:17.126Z,3.00
2022-11-02T23:36:02.894Z,2.70
2022-11-02T23:38:47.467Z,2.20
2022-11-02T23:41:15.650Z,2.00
2022-11-02T23:43:44.501Z,2.30
2022-11-02T23:46:13.011Z,2.20
2022-11-02T23:48:44.892Z,1.80
2022-11-02T23:51:33.003Z,1.90
2022-11-02T23:54:19.955Z,1.93
2022-11-02T23:56:48.129Z,2.00
2022-11-02T23:59:18.969Z,1.70
